sensor_id;sensor_type;location;lat;lon;timestamp;temperature;humidity
10581;DHT22;5338;51.500;6.802;2023-01-06T00:02:47;10.80;99.90
10581;DHT22;5338;51.500;6.802;2023-01-06T00:10:10;10.90;99.90
10581;DHT22;5338;51.500;6.802;2023-01-06T00:12:37;11.00;99.90
10581;DHT22;5338;51.500;6.802;2023-01-06T00:15:05;10.80;99.90
10581;DHT22;5338;51.500;6.802;2023-01-06T00:20:00;10.90;99.90
10581;DHT22;5338;51.500;6.802;2023-01-06T00:24:55;10.90;99.90
10581;DHT22;5338;51.500;6.802;2023-01-06T00:27:22;12.60;99.90
10581;DHT22;5338;51.500;6.802;2023-01-06T00:32:16;10.70;99.90
10581;DHT22;5338;51.500;6.802;2023-01-06T00:37:12;10.90;99.90
10581;DHT22;5338;51.500;6.802;2023-01-06T00:42:06;11.10;99.90
10581;DHT22;5338;51.500;6.802;2023-01-06T00:44:34;10.70;99.90
10581;DHT22;5338;51.500;6.802;2023-01-06T00:47:02;11.00;99.90
10581;DHT22;5338;51.500;6.802;2023-01-06T00:49:30;10.90;99.90
10581;DHT22;5338;51.500;6.802;2023-01-06T00:51:56;11.00;99.90
10581;DHT22;5338;51.500;6.802;2023-01-06T00:54:25;10.90;99.90
10581;DHT22;5338;51.500;6.802;2023-01-06T00:56:53;10.60;99.90
10581;DHT22;5338;51.500;6.802;2023-01-06T00:59:21;11.00;99.90
10581;DHT22;5338;51.500;6.802;2023-01-06T01:01:50;9.70;99.90
10581;DHT22;5338;51.500;6.802;2023-01-06T01:06:45;10.80;99.90
10581;DHT22;5338;51.500;6.802;2023-01-06T01:09:14;10.80;99.90
10581;DHT22;5338;51.500;6.802;2023-01-06T01:11:43;10.70;99.90
10581;DHT22;5338;51.500;6.802;2023-01-06T01:19:22;10.80;99.90
10581;DHT22;5338;51.500;6.802;2023-01-06T01:24:17;10.70;99.90
10581;DHT22;5338;51.500;6.802;2023-01-06T01:26:45;10.80;99.90
10581;DHT22;5338;51.500;6.802;2023-01-06T01:29:14;10.90;99.90
10581;DHT22;5338;51.500;6.802;2023-01-06T01:31:42;10.90;99.90
10581;DHT22;5338;51.500;6.802;2023-01-06T01:34:10;10.80;99.90
10581;DHT22;5338;51.500;6.802;2023-01-06T01:36:39;10.70;99.90
10581;DHT22;5338;51.500;6.802;2023-01-06T01:41:33;10.80;99.90
10581;DHT22;5338;51.500;6.802;2023-01-06T01:49:13;10.70;99.90
10581;DHT22;5338;51.500;6.802;2023-01-06T01:51:45;10.80;99.90
10581;DHT22;5338;51.500;6.802;2023-01-06T01:54:16;10.70;99.90
10581;DHT22;5338;51.500;6.802;2023-01-06T01:56:49;10.70;99.90
10581;DHT22;5338;51.500;6.802;2023-01-06T01:59:22;10.70;99.90
10581;DHT22;5338;51.500;6.802;2023-01-06T02:01:50;10.70;99.90
10581;DHT22;5338;51.500;6.802;2023-01-06T02:04:18;10.70;99.90
10581;DHT22;5338;51.500;6.802;2023-01-06T02:06:45;10.70;99.90
10581;DHT22;5338;51.500;6.802;2023-01-06T02:09:17;10.70;99.90
10581;DHT22;5338;51.500;6.802;2023-01-06T02:11:45;10.80;99.90
10581;DHT22;5338;51.500;6.802;2023-01-06T02:14:17;10.70;99.90
10581;DHT22;5338;51.500;6.802;2023-01-06T02:17:01;10.70;99.90
10581;DHT22;5338;51.500;6.802;2023-01-06T02:22:42;10.70;99.90
10581;DHT22;5338;51.500;6.802;2023-01-06T02:25:35;10.70;99.90
10581;DHT22;5338;51.500;6.802;2023-01-06T02:34:38;10.80;99.90
10581;DHT22;5338;51.500;6.802;2023-01-06T02:37:21;10.60;99.90
10581;DHT22;5338;51.500;6.802;2023-01-06T02:40:15;10.70;99.90
10581;DHT22;5338;51.500;6.802;2023-01-06T02:42:53;10.70;99.90
10581;DHT22;5338;51.500;6.802;2023-01-06T02:45:31;10.70;99.90
10581;DHT22;5338;51.500;6.802;2023-01-06T02:48:06;10.60;99.90
10581;DHT22;5338;51.500;6.802;2023-01-06T02:50:38;10.50;99.90
10581;DHT22;5338;51.500;6.802;2023-01-06T02:53:10;10.70;99.90
10581;DHT22;5338;51.500;6.802;2023-01-06T02:55:42;10.60;99.90
10581;DHT22;5338;51.500;6.802;2023-01-06T02:58:15;10.70;99.90
10581;DHT22;5338;51.500;6.802;2023-01-06T03:00:47;10.70;99.90
10581;DHT22;5338;51.500;6.802;2023-01-06T03:03:19;10.80;99.90
10581;DHT22;5338;51.500;6.802;2023-01-06T03:05:51;10.60;99.90
10581;DHT22;5338;51.500;6.802;2023-01-06T03:08:22;10.60;99.90
10581;DHT22;5338;51.500;6.802;2023-01-06T03:10:51;10.60;99.90
10581;DHT22;5338;51.500;6.802;2023-01-06T03:13:24;10.60;99.90
10581;DHT22;5338;51.500;6.802;2023-01-06T03:18:21;10.70;99.90
10581;DHT22;5338;51.500;6.802;2023-01-06T03:20:50;10.70;99.90
10581;DHT22;5338;51.500;6.802;2023-01-06T03:30:44;10.70;99.90
10581;DHT22;5338;51.500;6.802;2023-01-06T03:33:22;8.70;99.90
10581;DHT22;5338;51.500;6.802;2023-01-06T03:35:59;10.50;99.90
10581;DHT22;5338;51.500;6.802;2023-01-06T03:38:41;10.50;99.90
10581;DHT22;5338;51.500;6.802;2023-01-06T03:41:18;10.60;99.90
10581;DHT22;5338;51.500;6.802;2023-01-06T03:43:57;10.60;99.90
10581;DHT22;5338;51.500;6.802;2023-01-06T03:46:28;10.60;99.90
10581;DHT22;5338;51.500;6.802;2023-01-06T03:49:04;10.60;99.90
10581;DHT22;5338;51.500;6.802;2023-01-06T03:51:41;10.60;99.90
10581;DHT22;5338;51.500;6.802;2023-01-06T03:54:17;10.60;99.90
10581;DHT22;5338;51.500;6.802;2023-01-06T03:56:48;10.70;99.90
10581;DHT22;5338;51.500;6.802;2023-01-06T03:59:19;10.70;99.90
10581;DHT22;5338;51.500;6.802;2023-01-06T04:01:46;10.70;99.90
10581;DHT22;5338;51.500;6.802;2023-01-06T04:04:17;10.70;99.90
10581;DHT22;5338;51.500;6.802;2023-01-06T04:19:19;10.80;99.90
10581;DHT22;5338;51.500;6.802;2023-01-06T04:21:46;10.70;99.90
10581;DHT22;5338;51.500;6.802;2023-01-06T04:31:34;10.80;99.90
10581;DHT22;5338;51.500;6.802;2023-01-06T04:36:29;10.70;99.90
10581;DHT22;5338;51.500;6.802;2023-01-06T04:46:18;10.70;99.90
10581;DHT22;5338;51.500;6.802;2023-01-06T04:53:41;10.80;99.90
10581;DHT22;5338;51.500;6.802;2023-01-06T04:56:09;10.70;99.90
10581;DHT22;5338;51.500;6.802;2023-01-06T04:58:37;10.60;99.90
10581;DHT22;5338;51.500;6.802;2023-01-06T05:01:06;10.80;99.90
10581;DHT22;5338;51.500;6.802;2023-01-06T05:08:29;10.80;99.90
10581;DHT22;5338;51.500;6.802;2023-01-06T05:11:01;10.80;99.90
10581;DHT22;5338;51.500;6.802;2023-01-06T05:23:18;10.70;99.90
10581;DHT22;5338;51.500;6.802;2023-01-06T05:28:13;10.80;99.90
10581;DHT22;5338;51.500;6.802;2023-01-06T05:35:34;10.70;99.90
10581;DHT22;5338;51.500;6.802;2023-01-06T05:40:29;10.80;99.90
10581;DHT22;5338;51.500;6.802;2023-01-06T05:42:56;10.70;99.90
10581;DHT22;5338;51.500;6.802;2023-01-06T05:45:25;10.80;99.90
10581;DHT22;5338;51.500;6.802;2023-01-06T05:47:52;10.70;99.90
10581;DHT22;5338;51.500;6.802;2023-01-06T05:50:19;10.90;99.90
10581;DHT22;5338;51.500;6.802;2023-01-06T05:55:13;10.70;99.90
10581;DHT22;5338;51.500;6.802;2023-01-06T06:00:08;10.80;99.90
10581;DHT22;5338;51.500;6.802;2023-01-06T06:02:36;10.80;99.90
10581;DHT22;5338;51.500;6.802;2023-01-06T06:05:03;10.70;99.90
10581;DHT22;5338;51.500;6.802;2023-01-06T06:07:30;10.70;99.90
10581;DHT22;5338;51.500;6.802;2023-01-06T06:12:24;10.80;99.90
10581;DHT22;5338;51.500;6.802;2023-01-06T06:19:47;10.80;99.90
10581;DHT22;5338;51.500;6.802;2023-01-06T06:22:14;10.60;99.90
10581;DHT22;5338;51.500;6.802;2023-01-06T06:32:02;11.00;99.90
10581;DHT22;5338;51.500;6.802;2023-01-06T06:36:58;10.70;99.90
10581;DHT22;5338;51.500;6.802;2023-01-06T06:54:08;10.60;99.90
10581;DHT22;5338;51.500;6.802;2023-01-06T07:03:57;11.00;99.90
10581;DHT22;5338;51.500;6.802;2023-01-06T07:06:24;10.70;99.90
10581;DHT22;5338;51.500;6.802;2023-01-06T07:11:20;10.70;99.90
10581;DHT22;5338;51.500;6.802;2023-01-06T07:26:03;10.80;99.90
10581;DHT22;5338;51.500;6.802;2023-01-06T07:28:31;10.70;99.90
10581;DHT22;5338;51.500;6.802;2023-01-06T07:33:26;10.80;99.90
10581;DHT22;5338;51.500;6.802;2023-01-06T07:35:55;10.70;99.90
10581;DHT22;5338;51.500;6.802;2023-01-06T07:38:22;10.70;99.90
10581;DHT22;5338;51.500;6.802;2023-01-06T07:45:46;10.70;99.90
10581;DHT22;5338;51.500;6.802;2023-01-06T07:53:08;10.80;99.90
10581;DHT22;5338;51.500;6.802;2023-01-06T07:58:03;9.90;99.90
10581;DHT22;5338;51.500;6.802;2023-01-06T08:00:31;11.00;99.90
10581;DHT22;5338;51.500;6.802;2023-01-06T08:03:02;10.80;99.90
10581;DHT22;5338;51.500;6.802;2023-01-06T08:05:30;10.90;99.90
10581;DHT22;5338;51.500;6.802;2023-01-06T08:20:14;10.90;99.90
10581;DHT22;5338;51.500;6.802;2023-01-06T08:25:08;10.80;99.90
10581;DHT22;5338;51.500;6.802;2023-01-06T08:30:03;10.80;99.90
10581;DHT22;5338;51.500;6.802;2023-01-06T08:37:26;10.80;99.90
10581;DHT22;5338;51.500;6.802;2023-01-06T08:49:42;10.60;99.90
10581;DHT22;5338;51.500;6.802;2023-01-06T08:54:37;10.80;99.90
10581;DHT22;5338;51.500;6.802;2023-01-06T09:11:50;10.80;99.90
10581;DHT22;5338;51.500;6.802;2023-01-06T09:14:17;10.80;99.90
10581;DHT22;5338;51.500;6.802;2023-01-06T09:24:11;11.10;99.90
10581;DHT22;5338;51.500;6.802;2023-01-06T09:29:06;11.10;99.90
10581;DHT22;5338;51.500;6.802;2023-01-06T09:34:00;11.20;99.90
10581;DHT22;5338;51.500;6.802;2023-01-06T09:36:27;11.20;99.90
10581;DHT22;5338;51.500;6.802;2023-01-06T09:41:38;11.30;99.90
10581;DHT22;5338;51.500;6.802;2023-01-06T09:44:13;11.20;99.90
10581;DHT22;5338;51.500;6.802;2023-01-06T09:46:43;11.30;99.90
10581;DHT22;5338;51.500;6.802;2023-01-06T09:49:17;11.30;99.90
10581;DHT22;5338;51.500;6.802;2023-01-06T09:54:16;11.50;99.90
10581;DHT22;5338;51.500;6.802;2023-01-06T09:56:50;11.80;99.90
10581;DHT22;5338;51.500;6.802;2023-01-06T09:59:24;11.30;99.90
10581;DHT22;5338;51.500;6.802;2023-01-06T10:01:53;11.20;99.90
10581;DHT22;5338;51.500;6.802;2023-01-06T10:04:25;11.30;99.90
10581;DHT22;5338;51.500;6.802;2023-01-06T10:07:03;11.30;99.90
10581;DHT22;5338;51.500;6.802;2023-01-06T10:09:37;11.30;99.90
10581;DHT22;5338;51.500;6.802;2023-01-06T10:12:17;11.20;99.90
10581;DHT22;5338;51.500;6.802;2023-01-06T10:14:54;11.20;99.90
10581;DHT22;5338;51.500;6.802;2023-01-06T10:17:41;11.40;99.90
10581;DHT22;5338;51.500;6.802;2023-01-06T10:20:33;11.40;99.90
10581;DHT22;5338;51.500;6.802;2023-01-06T10:23:07;11.70;99.90
10581;DHT22;5338;51.500;6.802;2023-01-06T10:25:40;11.50;99.90
10581;DHT22;5338;51.500;6.802;2023-01-06T10:28:12;11.50;99.90
10581;DHT22;5338;51.500;6.802;2023-01-06T10:30:47;11.60;99.90
10581;DHT22;5338;51.500;6.802;2023-01-06T10:33:21;11.40;99.90
10581;DHT22;5338;51.500;6.802;2023-01-06T10:35:50;11.40;99.90
10581;DHT22;5338;51.500;6.802;2023-01-06T10:38:18;11.40;99.90
10581;DHT22;5338;51.500;6.802;2023-01-06T10:40:47;11.60;99.90
10581;DHT22;5338;51.500;6.802;2023-01-06T10:45:48;11.90;99.90
10581;DHT22;5338;51.500;6.802;2023-01-06T10:48:18;12.20;99.90
10581;DHT22;5338;51.500;6.802;2023-01-06T10:50:47;12.30;99.90
10581;DHT22;5338;51.500;6.802;2023-01-06T10:53:15;12.60;99.90
10581;DHT22;5338;51.500;6.802;2023-01-06T10:55:45;12.70;99.90
10581;DHT22;5338;51.500;6.802;2023-01-06T10:58:18;12.40;99.90
10581;DHT22;5338;51.500;6.802;2023-01-06T11:00:59;12.30;99.90
10581;DHT22;5338;51.500;6.802;2023-01-06T11:03:27;12.00;99.90
10581;DHT22;5338;51.500;6.802;2023-01-06T11:06:09;11.90;99.90
10581;DHT22;5338;51.500;6.802;2023-01-06T11:08:36;11.80;99.90
10581;DHT22;5338;51.500;6.802;2023-01-06T11:11:10;11.70;99.90
10581;DHT22;5338;51.500;6.802;2023-01-06T11:13:39;11.60;99.90
10581;DHT22;5338;51.500;6.802;2023-01-06T11:16:17;11.60;99.90
10581;DHT22;5338;51.500;6.802;2023-01-06T11:18:49;11.50;99.90
10581;DHT22;5338;51.500;6.802;2023-01-06T11:23:45;11.50;99.90
10581;DHT22;5338;51.500;6.802;2023-01-06T11:26:15;11.40;99.90
10581;DHT22;5338;51.500;6.802;2023-01-06T11:28:44;11.70;99.90
10581;DHT22;5338;51.500;6.802;2023-01-06T11:31:19;11.60;99.90
10581;DHT22;5338;51.500;6.802;2023-01-06T11:33:49;11.60;99.90
10581;DHT22;5338;51.500;6.802;2023-01-06T11:36:17;11.60;99.90
10581;DHT22;5338;51.500;6.802;2023-01-06T11:38:47;11.90;99.90
10581;DHT22;5338;51.500;6.802;2023-01-06T11:41:22;12.30;99.90
10581;DHT22;5338;51.500;6.802;2023-01-06T11:43:50;12.40;99.90
10581;DHT22;5338;51.500;6.802;2023-01-06T11:46:23;12.40;99.90
10581;DHT22;5338;51.500;6.802;2023-01-06T11:48:59;12.30;99.90
10581;DHT22;5338;51.500;6.802;2023-01-06T11:51:32;12.20;99.90
10581;DHT22;5338;51.500;6.802;2023-01-06T11:54:22;12.30;99.90
10581;DHT22;5338;51.500;6.802;2023-01-06T11:57:22;12.40;99.90
10581;DHT22;5338;51.500;6.802;2023-01-06T12:00:17;12.40;99.90
10581;DHT22;5338;51.500;6.802;2023-01-06T12:02:51;12.60;99.90
10581;DHT22;5338;51.500;6.802;2023-01-06T12:05:26;12.90;99.90
10581;DHT22;5338;51.500;6.802;2023-01-06T12:07:56;12.90;99.90
10581;DHT22;5338;51.500;6.802;2023-01-06T12:10:27;13.40;99.90
10581;DHT22;5338;51.500;6.802;2023-01-06T12:17:58;13.90;99.90
10581;DHT22;5338;51.500;6.802;2023-01-06T12:20:28;13.70;99.90
10581;DHT22;5338;51.500;6.802;2023-01-06T12:22:59;13.60;99.90
10581;DHT22;5338;51.500;6.802;2023-01-06T12:25:30;12.30;99.90
10581;DHT22;5338;51.500;6.802;2023-01-06T12:28:01;13.10;99.90
10581;DHT22;5338;51.500;6.802;2023-01-06T12:30:33;13.10;99.90
10581;DHT22;5338;51.500;6.802;2023-01-06T12:33:09;13.20;99.90
10581;DHT22;5338;51.500;6.802;2023-01-06T12:35:39;13.20;99.90
10581;DHT22;5338;51.500;6.802;2023-01-06T12:38:13;13.00;99.90
10581;DHT22;5338;51.500;6.802;2023-01-06T12:40:44;12.90;99.90
10581;DHT22;5338;51.500;6.802;2023-01-06T12:43:16;12.90;99.90
10581;DHT22;5338;51.500;6.802;2023-01-06T12:45:51;12.80;99.90
10581;DHT22;5338;51.500;6.802;2023-01-06T12:48:26;12.70;99.90
10581;DHT22;5338;51.500;6.802;2023-01-06T12:50:59;12.80;99.90
10581;DHT22;5338;51.500;6.802;2023-01-06T12:53:29;12.70;99.90
10581;DHT22;5338;51.500;6.802;2023-01-06T12:56:09;12.60;99.90
10581;DHT22;5338;51.500;6.802;2023-01-06T12:58:46;12.60;99.90
10581;DHT22;5338;51.500;6.802;2023-01-06T13:01:19;12.50;99.90
10581;DHT22;5338;51.500;6.802;2023-01-06T13:04:11;12.50;99.90
10581;DHT22;5338;51.500;6.802;2023-01-06T13:07:00;12.40;99.90
10581;DHT22;5338;51.500;6.802;2023-01-06T13:09:37;12.20;99.90
10581;DHT22;5338;51.500;6.802;2023-01-06T13:12:19;12.30;99.90
10581;DHT22;5338;51.500;6.802;2023-01-06T13:14:55;12.20;99.90
10581;DHT22;5338;51.500;6.802;2023-01-06T13:17:30;12.20;99.90
10581;DHT22;5338;51.500;6.802;2023-01-06T13:20:00;12.20;99.90
10581;DHT22;5338;51.500;6.802;2023-01-06T13:22:42;12.20;99.90
10581;DHT22;5338;51.500;6.802;2023-01-06T13:25:41;12.10;99.90
10581;DHT22;5338;51.500;6.802;2023-01-06T13:28:17;12.20;99.90
10581;DHT22;5338;51.500;6.802;2023-01-06T13:31:00;12.20;99.90
10581;DHT22;5338;51.500;6.802;2023-01-06T13:33:45;12.20;99.90
10581;DHT22;5338;51.500;6.802;2023-01-06T13:39:13;12.10;99.90
10581;DHT22;5338;51.500;6.802;2023-01-06T13:41:44;12.10;99.90
10581;DHT22;5338;51.500;6.802;2023-01-06T13:44:17;12.20;99.90
10581;DHT22;5338;51.500;6.802;2023-01-06T13:46:46;12.20;99.90
10581;DHT22;5338;51.500;6.802;2023-01-06T13:51:41;12.30;99.90
10581;DHT22;5338;51.500;6.802;2023-01-06T13:57:27;12.30;99.90
10581;DHT22;5338;51.500;6.802;2023-01-06T14:00:13;12.30;99.90
10581;DHT22;5338;51.500;6.802;2023-01-06T14:05:53;12.30;99.90
10581;DHT22;5338;51.500;6.802;2023-01-06T14:08:21;12.20;99.90
10581;DHT22;5338;51.500;6.802;2023-01-06T14:13:48;11.90;99.90
10581;DHT22;5338;51.500;6.802;2023-01-06T14:16:16;12.00;99.90
10581;DHT22;5338;51.500;6.802;2023-01-06T14:18:44;12.00;99.90
10581;DHT22;5338;51.500;6.802;2023-01-06T14:21:21;12.00;99.90
10581;DHT22;5338;51.500;6.802;2023-01-06T14:23:52;12.00;99.90
10581;DHT22;5338;51.500;6.802;2023-01-06T14:26:20;12.20;99.90
10581;DHT22;5338;51.500;6.802;2023-01-06T14:28:49;11.90;99.90
10581;DHT22;5338;51.500;6.802;2023-01-06T14:31:45;11.90;99.90
10581;DHT22;5338;51.500;6.802;2023-01-06T14:34:15;12.10;99.90
10581;DHT22;5338;51.500;6.802;2023-01-06T14:36:43;12.00;99.90
10581;DHT22;5338;51.500;6.802;2023-01-06T14:39:18;11.90;99.90
10581;DHT22;5338;51.500;6.802;2023-01-06T14:41:52;11.90;99.90
10581;DHT22;5338;51.500;6.802;2023-01-06T14:44:26;11.90;99.90
10581;DHT22;5338;51.500;6.802;2023-01-06T14:46:57;11.90;99.90
10581;DHT22;5338;51.500;6.802;2023-01-06T14:49:32;12.00;99.90
10581;DHT22;5338;51.500;6.802;2023-01-06T14:52:06;11.80;99.90
10581;DHT22;5338;51.500;6.802;2023-01-06T14:54:36;11.70;99.90
10581;DHT22;5338;51.500;6.802;2023-01-06T14:59:33;11.70;99.90
10581;DHT22;5338;51.500;6.802;2023-01-06T15:02:03;11.70;99.90
10581;DHT22;5338;51.500;6.802;2023-01-06T15:07:14;11.60;99.90
10581;DHT22;5338;51.500;6.802;2023-01-06T15:09:42;11.70;99.90
10581;DHT22;5338;51.500;6.802;2023-01-06T15:12:26;11.60;99.90
10581;DHT22;5338;51.500;6.802;2023-01-06T15:14:55;11.60;99.90
10581;DHT22;5338;51.500;6.802;2023-01-06T15:17:22;11.70;99.90
10581;DHT22;5338;51.500;6.802;2023-01-06T15:19:50;11.50;99.90
10581;DHT22;5338;51.500;6.802;2023-01-06T15:22:20;11.50;99.90
10581;DHT22;5338;51.500;6.802;2023-01-06T15:24:48;11.40;99.90
10581;DHT22;5338;51.500;6.802;2023-01-06T15:27:17;11.40;99.90
10581;DHT22;5338;51.500;6.802;2023-01-06T15:29:51;11.60;99.90
10581;DHT22;5338;51.500;6.802;2023-01-06T15:32:20;11.40;99.90
10581;DHT22;5338;51.500;6.802;2023-01-06T15:34:48;11.40;99.90
10581;DHT22;5338;51.500;6.802;2023-01-06T15:37:18;11.40;99.90
10581;DHT22;5338;51.500;6.802;2023-01-06T15:39:46;11.30;99.90
10581;DHT22;5338;51.500;6.802;2023-01-06T15:42:14;11.60;99.90
10581;DHT22;5338;51.500;6.802;2023-01-06T15:44:53;11.40;99.90
10581;DHT22;5338;51.500;6.802;2023-01-06T15:47:27;11.40;99.90
10581;DHT22;5338;51.500;6.802;2023-01-06T15:49:55;11.40;99.90
10581;DHT22;5338;51.500;6.802;2023-01-06T15:52:28;11.30;99.90
10581;DHT22;5338;51.500;6.802;2023-01-06T15:54:58;11.30;99.90
10581;DHT22;5338;51.500;6.802;2023-01-06T15:57:30;11.30;99.90
10581;DHT22;5338;51.500;6.802;2023-01-06T15:59:59;11.30;99.90
10581;DHT22;5338;51.500;6.802;2023-01-06T16:02:30;11.30;99.90
10581;DHT22;5338;51.500;6.802;2023-01-06T16:04:59;11.20;99.90
10581;DHT22;5338;51.500;6.802;2023-01-06T16:07:36;11.20;99.90
10581;DHT22;5338;51.500;6.802;2023-01-06T16:10:29;11.20;99.90
10581;DHT22;5338;51.500;6.802;2023-01-06T16:15:50;11.20;99.90
10581;DHT22;5338;51.500;6.802;2023-01-06T16:18:29;11.20;99.90
10581;DHT22;5338;51.500;6.802;2023-01-06T16:20:57;11.10;99.90
10581;DHT22;5338;51.500;6.802;2023-01-06T16:23:31;11.20;99.90
10581;DHT22;5338;51.500;6.802;2023-01-06T16:26:08;11.20;99.90
10581;DHT22;5338;51.500;6.802;2023-01-06T16:28:41;11.40;99.90
10581;DHT22;5338;51.500;6.802;2023-01-06T16:31:10;11.10;99.90
10581;DHT22;5338;51.500;6.802;2023-01-06T16:33:41;11.30;99.90
10581;DHT22;5338;51.500;6.802;2023-01-06T16:36:14;11.00;99.90
10581;DHT22;5338;51.500;6.802;2023-01-06T16:41:15;11.20;99.90
10581;DHT22;5338;51.500;6.802;2023-01-06T16:43:43;11.20;99.90
10581;DHT22;5338;51.500;6.802;2023-01-06T16:46:16;11.20;99.90
10581;DHT22;5338;51.500;6.802;2023-01-06T16:48:44;11.40;99.90
10581;DHT22;5338;51.500;6.802;2023-01-06T16:51:14;11.30;99.90
10581;DHT22;5338;51.500;6.802;2023-01-06T16:53:42;11.20;99.90
10581;DHT22;5338;51.500;6.802;2023-01-06T16:56:20;11.20;99.90
10581;DHT22;5338;51.500;6.802;2023-01-06T17:01:15;11.00;99.90
10581;DHT22;5338;51.500;6.802;2023-01-06T17:03:49;11.10;99.90
10581;DHT22;5338;51.500;6.802;2023-01-06T17:06:19;11.20;99.90
10581;DHT22;5338;51.500;6.802;2023-01-06T17:08:46;11.30;99.90
10581;DHT22;5338;51.500;6.802;2023-01-06T17:11:16;11.10;99.90
10581;DHT22;5338;51.500;6.802;2023-01-06T17:13:50;11.10;99.90
10581;DHT22;5338;51.500;6.802;2023-01-06T17:16:18;11.00;99.90
10581;DHT22;5338;51.500;6.802;2023-01-06T17:18:53;11.10;99.90
10581;DHT22;5338;51.500;6.802;2023-01-06T17:21:22;11.00;99.90
10581;DHT22;5338;51.500;6.802;2023-01-06T17:23:53;11.00;99.90
10581;DHT22;5338;51.500;6.802;2023-01-06T17:28:50;10.80;99.90
10581;DHT22;5338;51.500;6.802;2023-01-06T17:31:24;11.10;99.90
10581;DHT22;5338;51.500;6.802;2023-01-06T17:33:54;11.10;99.90
10581;DHT22;5338;51.500;6.802;2023-01-06T17:36:24;11.00;99.90
10581;DHT22;5338;51.500;6.802;2023-01-06T17:41:20;11.00;99.90
10581;DHT22;5338;51.500;6.802;2023-01-06T17:46:21;11.10;99.90
10581;DHT22;5338;51.500;6.802;2023-01-06T17:48:50;11.20;99.90
10581;DHT22;5338;51.500;6.802;2023-01-06T17:51:23;11.10;99.90
10581;DHT22;5338;51.500;6.802;2023-01-06T17:53:50;11.10;99.90
10581;DHT22;5338;51.500;6.802;2023-01-06T17:59:10;11.20;99.90
10581;DHT22;5338;51.500;6.802;2023-01-06T18:01:38;11.10;99.90
10581;DHT22;5338;51.500;6.802;2023-01-06T18:04:10;11.10;99.90
10581;DHT22;5338;51.500;6.802;2023-01-06T18:06:41;11.00;99.90
10581;DHT22;5338;51.500;6.802;2023-01-06T18:09:11;11.10;99.90
10581;DHT22;5338;51.500;6.802;2023-01-06T18:11:40;11.00;99.90
10581;DHT22;5338;51.500;6.802;2023-01-06T18:14:18;11.10;99.90
10581;DHT22;5338;51.500;6.802;2023-01-06T18:16:48;10.90;99.90
10581;DHT22;5338;51.500;6.802;2023-01-06T18:19:26;11.10;99.90
10581;DHT22;5338;51.500;6.802;2023-01-06T18:21:55;11.10;99.90
10581;DHT22;5338;51.500;6.802;2023-01-06T18:24:25;11.10;99.90
10581;DHT22;5338;51.500;6.802;2023-01-06T18:26:54;11.10;99.90
10581;DHT22;5338;51.500;6.802;2023-01-06T18:29:23;11.10;99.90
10581;DHT22;5338;51.500;6.802;2023-01-06T18:31:51;11.10;99.90
10581;DHT22;5338;51.500;6.802;2023-01-06T18:34:27;11.10;99.90
10581;DHT22;5338;51.500;6.802;2023-01-06T18:36:59;11.10;99.90
10581;DHT22;5338;51.500;6.802;2023-01-06T18:39:28;11.00;99.90
10581;DHT22;5338;51.500;6.802;2023-01-06T18:42:17;11.10;99.90
10581;DHT22;5338;51.500;6.802;2023-01-06T18:44:44;11.30;99.90
10581;DHT22;5338;51.500;6.802;2023-01-06T18:47:16;11.00;99.90
10581;DHT22;5338;51.500;6.802;2023-01-06T18:49:43;11.00;99.90
10581;DHT22;5338;51.500;6.802;2023-01-06T18:52:39;11.10;99.90
10581;DHT22;5338;51.500;6.802;2023-01-06T18:55:35;11.00;99.90
10581;DHT22;5338;51.500;6.802;2023-01-06T18:58:15;10.90;99.90
10581;DHT22;5338;51.500;6.802;2023-01-06T19:00:45;11.00;99.90
10581;DHT22;5338;51.500;6.802;2023-01-06T19:03:35;11.10;99.90
10581;DHT22;5338;51.500;6.802;2023-01-06T19:06:42;11.50;99.90
10581;DHT22;5338;51.500;6.802;2023-01-06T19:09:17;11.00;99.90
10581;DHT22;5338;51.500;6.802;2023-01-06T19:11:48;11.20;99.90
10581;DHT22;5338;51.500;6.802;2023-01-06T19:14:18;11.40;99.90
10581;DHT22;5338;51.500;6.802;2023-01-06T19:16:49;11.20;99.90
10581;DHT22;5338;51.500;6.802;2023-01-06T19:19:25;11.20;99.90
10581;DHT22;5338;51.500;6.802;2023-01-06T19:22:17;11.10;99.90
10581;DHT22;5338;51.500;6.802;2023-01-06T19:24:48;11.20;99.90
10581;DHT22;5338;51.500;6.802;2023-01-06T19:27:31;11.10;99.90
10581;DHT22;5338;51.500;6.802;2023-01-06T19:33:34;11.20;99.90
10581;DHT22;5338;51.500;6.802;2023-01-06T19:36:25;11.20;99.90
10581;DHT22;5338;51.500;6.802;2023-01-06T19:38:53;11.20;99.90
10581;DHT22;5338;51.500;6.802;2023-01-06T19:41:24;11.80;99.90
10581;DHT22;5338;51.500;6.802;2023-01-06T19:43:59;11.20;99.90
10581;DHT22;5338;51.500;6.802;2023-01-06T19:48:57;11.40;99.90
10581;DHT22;5338;51.500;6.802;2023-01-06T19:51:27;11.20;99.90
10581;DHT22;5338;51.500;6.802;2023-01-06T19:54:00;11.10;99.90
10581;DHT22;5338;51.500;6.802;2023-01-06T19:56:32;10.90;99.90
10581;DHT22;5338;51.500;6.802;2023-01-06T19:59:01;11.10;99.90
10581;DHT22;5338;51.500;6.802;2023-01-06T20:01:30;10.90;99.90
10581;DHT22;5338;51.500;6.802;2023-01-06T20:13:53;10.90;99.90
10581;DHT22;5338;51.500;6.802;2023-01-06T20:16:20;10.70;99.90
10581;DHT22;5338;51.500;6.802;2023-01-06T20:31:04;10.80;99.90
10581;DHT22;5338;51.500;6.802;2023-01-06T20:48:15;10.80;99.90
10581;DHT22;5338;51.500;6.802;2023-01-06T21:05:26;10.80;99.90
10581;DHT22;5338;51.500;6.802;2023-01-06T21:10:21;10.80;99.90
10581;DHT22;5338;51.500;6.802;2023-01-06T21:17:42;10.90;99.90
10581;DHT22;5338;51.500;6.802;2023-01-06T21:20:10;10.60;99.90
10581;DHT22;5338;51.500;6.802;2023-01-06T21:22:38;10.90;99.90
10581;DHT22;5338;51.500;6.802;2023-01-06T21:25:05;11.10;99.90
10581;DHT22;5338;51.500;6.802;2023-01-06T21:27:32;11.00;99.90
10581;DHT22;5338;51.500;6.802;2023-01-06T21:32:26;10.80;99.90
10581;DHT22;5338;51.500;6.802;2023-01-06T21:39:48;10.90;99.90
10581;DHT22;5338;51.500;6.802;2023-01-06T21:45:00;11.10;99.90
10581;DHT22;5338;51.500;6.802;2023-01-06T21:52:22;10.70;99.90
10581;DHT22;5338;51.500;6.802;2023-01-06T21:54:50;10.90;99.90
10581;DHT22;5338;51.500;6.802;2023-01-06T21:57:16;11.20;99.90
10581;DHT22;5338;51.500;6.802;2023-01-06T22:02:13;11.00;99.90
10581;DHT22;5338;51.500;6.802;2023-01-06T22:04:40;10.80;99.90
10581;DHT22;5338;51.500;6.802;2023-01-06T22:07:07;10.90;99.90
10581;DHT22;5338;51.500;6.802;2023-01-06T22:09:35;10.90;99.90
10581;DHT22;5338;51.500;6.802;2023-01-06T22:12:04;11.00;99.90
10581;DHT22;5338;51.500;6.802;2023-01-06T22:14:31;11.10;99.90
10581;DHT22;5338;51.500;6.802;2023-01-06T22:19:26;11.30;99.90
10581;DHT22;5338;51.500;6.802;2023-01-06T22:24:21;11.00;99.90
10581;DHT22;5338;51.500;6.802;2023-01-06T22:29:17;10.90;99.90
10581;DHT22;5338;51.500;6.802;2023-01-06T22:31:44;11.10;99.90
10581;DHT22;5338;51.500;6.802;2023-01-06T22:46:28;11.00;99.90
10581;DHT22;5338;51.500;6.802;2023-01-06T22:56:17;11.00;99.90
10581;DHT22;5338;51.500;6.802;2023-01-06T22:58:44;11.00;99.90
10581;DHT22;5338;51.500;6.802;2023-01-06T23:03:39;11.00;99.90
10581;DHT22;5338;51.500;6.802;2023-01-06T23:06:08;10.90;99.90
10581;DHT22;5338;51.500;6.802;2023-01-06T23:08:36;10.90;99.90
10581;DHT22;5338;51.500;6.802;2023-01-06T23:11:06;11.10;99.90